Time;durP1;ratioP1;P1;durP2;ratioP2;P2;SDS_P1;SDS_P2;PMS_P1;PMS_P2;Temp;Humidity;BMP_temperature;BMP_pressure;BME280_temperature;BME280_humidity;BME280_pressure;Samples;Min_cycle;Max_cycle;Signal;HPM_P1;HPM_P2
2023/10/20 00:00:20;;;;;;;10.40;3.13;;;;;;;15.54;100.00;98957.94;5089089;28;20028;-68
2023/10/20 00:02:45;;;;;;;15.75;2.47;;;;;;;15.49;100.00;98961.22;5074719;28;20029;-68
2023/10/20 00:05:11;;;;;;;9.65;3.90;;;;;;;15.44;100.00;98955.78;5088738;28;20479;-68
2023/10/20 00:07:37;;;;;;;9.65;2.42;;;;;;;15.45;100.00;98949.53;5084753;28;20523;-67
2023/10/20 00:10:03;;;;;;;19.48;4.63;;;;;;;15.51;100.00;98948.69;5079913;28;20093;-67
2023/10/20 00:12:30;;;;;;;6.13;3.47;;;;;;;15.63;100.00;98937.50;5085585;28;20031;-67
2023/10/20 00:14:56;;;;;;;15.30;3.50;;;;;;;15.62;100.00;98938.50;5083620;28;20027;-67
2023/10/20 00:17:22;;;;;;;10.45;3.70;;;;;;;15.58;100.00;98930.28;5081107;28;20025;-68
2023/10/20 00:19:47;;;;;;;9.80;3.55;;;;;;;15.58;100.00;98923.22;5082463;28;20024;-67
2023/10/20 00:22:13;;;;;;;10.15;3.35;;;;;;;15.57;100.00;98916.38;5088238;28;20039;-68
2023/10/20 00:24:39;;;;;;;17.38;3.25;;;;;;;15.53;100.00;98936.16;5077254;28;20111;-68
2023/10/20 00:27:04;;;;;;;15.85;2.88;;;;;;;15.48;100.00;98933.34;5084452;28;20084;-67
2023/10/20 00:29:30;;;;;;;17.17;3.53;;;;;;;15.47;100.00;98926.50;5077199;28;20037;-68
2023/10/20 00:31:55;;;;;;;19.55;3.33;;;;;;;15.52;100.00;98926.66;5084806;28;20028;-68
2023/10/20 00:34:21;;;;;;;47.78;3.67;;;;;;;15.47;100.00;98921.25;5073251;28;20032;-67
2023/10/20 00:36:46;;;;;;;80.10;4.75;;;;;;;15.42;100.00;98913.22;5081039;28;20070;-68
2023/10/20 00:39:12;;;;;;;24.15;2.38;;;;;;;15.38;100.00;98908.59;5077049;28;20041;-70
2023/10/20 00:41:38;;;;;;;16.27;2.92;;;;;;;15.43;100.00;98909.56;5086014;28;20253;-69
2023/10/20 00:44:04;;;;;;;36.40;3.38;;;;;;;15.43;100.00;98909.56;5080534;28;20425;-67
2023/10/20 00:46:30;;;;;;;44.20;3.00;;;;;;;15.41;100.00;98895.84;5076272;28;20059;-70
2023/10/20 00:48:57;;;;;;;39.00;2.55;;;;;;;15.41;100.00;98890.59;5087874;28;20074;-68
2023/10/20 00:51:24;;;;;;;42.47;2.92;;;;;;;15.36;100.00;98882.56;5083835;28;20028;-69
2023/10/20 00:53:50;;;;;;;33.53;3.05;;;;;;;15.40;100.00;98893.44;5084603;28;20444;-67
2023/10/20 00:56:17;;;;;;;27.10;2.72;;;;;;;15.43;100.00;98877.28;5092982;28;20491;-67
2023/10/20 00:58:43;;;;;;;28.08;3.00;;;;;;;15.40;100.00;98868.00;5082838;28;20035;-67
2023/10/20 01:01:08;;;;;;;22.25;2.55;;;;;;;15.37;100.00;98878.13;5090444;28;20036;-68
2023/10/20 01:03:35;;;;;;;19.17;2.95;;;;;;;15.33;100.00;98866.44;5081237;28;20032;-67
2023/10/20 01:06:04;;;;;;;7.05;2.35;;;;;;;15.39;100.00;98862.97;5092829;28;20510;-67
2023/10/20 01:08:30;;;;;;;12.18;1.98;;;;;;;15.39;100.00;98860.34;5088541;28;20075;-68
2023/10/20 01:10:56;;;;;;;11.25;2.22;;;;;;;15.42;100.00;98865.97;5085901;28;20034;-67
2023/10/20 01:13:25;;;;;;;14.25;1.75;;;;;;;15.36;100.00;98866.81;5089056;28;20032;-68
2023/10/20 01:15:51;;;;;;;10.55;2.17;;;;;;;15.31;100.00;98858.78;5090641;28;20102;-68
2023/10/20 01:18:17;;;;;;;22.50;2.63;;;;;;;15.31;100.00;98850.91;5061789;28;20030;-69
2023/10/20 01:20:42;;;;;;;11.23;2.35;;;;;;;15.32;100.00;98849.91;5074296;28;21561;-69
2023/10/20 01:23:08;;;;;;;11.68;1.80;;;;;;;15.29;100.00;98845.06;5082148;28;20454;-69
2023/10/20 01:25:33;;;;;;;7.97;2.45;;;;;;;15.29;100.00;98845.06;5078008;28;20033;-68
2023/10/20 01:27:59;;;;;;;6.07;2.15;;;;;;;15.32;100.00;98839.41;5083159;28;20027;-70
2023/10/20 01:30:25;;;;;;;7.53;2.28;;;;;;;15.57;100.00;98849.94;5079715;28;20032;-69
2023/10/20 01:32:50;;;;;;;9.25;1.88;;;;;;;15.57;100.00;98847.31;5088449;28;20476;-69
2023/10/20 01:35:16;;;;;;;15.13;2.05;;;;;;;15.56;100.00;98851.75;5085199;28;20036;-70
2023/10/20 01:37:42;;;;;;;17.15;2.15;;;;;;;15.51;100.00;98848.94;5088792;28;20507;-70
2023/10/20 01:40:09;;;;;;;16.95;2.10;;;;;;;15.45;100.00;98841.13;5091208;28;20024;-70
2023/10/20 01:42:35;;;;;;;7.78;1.65;;;;;;;15.39;100.00;98837.53;5085776;28;20031;-69
2023/10/20 01:45:01;;;;;;;7.20;2.10;;;;;;;15.46;100.00;98838.28;5088681;28;20106;-70
2023/10/20 01:47:27;;;;;;;10.50;1.65;;;;;;;15.45;100.00;98828.81;5086246;28;20056;-70
2023/10/20 01:49:52;;;;;;;72.80;3.63;;;;;;;15.45;100.00;98828.00;5079980;28;20590;-70
2023/10/20 01:52:18;;;;;;;17.58;1.73;;;;;;;15.44;100.00;98821.94;5084365;28;20505;-70
2023/10/20 01:54:45;;;;;;;23.40;1.90;;;;;;;15.43;100.00;98825.59;5080249;28;20510;-70
2023/10/20 01:57:11;;;;;;;7.57;1.70;;;;;;;15.44;100.00;98823.78;5087313;28;20062;-70
2023/10/20 01:59:36;;;;;;;6.63;1.63;;;;;;;15.44;100.00;98821.16;5090019;28;20055;-70
2023/10/20 02:02:02;;;;;;;33.75;2.05;;;;;;;15.40;100.00;98814.72;5079578;28;20032;-70
2023/10/20 02:04:27;;;;;;;15.38;1.92;;;;;;;15.36;100.00;98816.16;5086872;28;20085;-69
2023/10/20 02:06:53;;;;;;;5.22;2.03;;;;;;;15.46;100.00;98817.28;5082630;28;20036;-70
2023/10/20 02:09:18;;;;;;;7.18;1.58;;;;;;;15.40;100.00;98810.28;5087277;28;20033;-70
2023/10/20 02:11:44;;;;;;;9.65;1.60;;;;;;;15.39;100.00;98816.53;5083670;28;20024;-69
2023/10/20 02:14:09;;;;;;;3.15;1.02;;;;;;;15.48;100.00;98820.50;5082697;28;20084;-69
2023/10/20 02:16:35;;;;;;;4.07;1.88;;;;;;;15.53;100.00;98815.41;5079349;28;20031;-70
2023/10/20 02:19:01;;;;;;;3.75;1.92;;;;;;;15.52;100.00;98813.00;5083672;28;20039;-69
2023/10/20 02:21:26;;;;;;;6.72;1.33;;;;;;;15.57;100.00;98815.81;5088354;28;20028;-70
2023/10/20 02:23:52;;;;;;;23.67;1.70;;;;;;;15.66;100.00;98818.94;5075575;28;20023;-70
2023/10/20 02:26:19;;;;;;;9.15;1.38;;;;;;;15.65;100.00;98812.06;5082769;28;20494;-69
2023/10/20 02:28:44;;;;;;;6.53;1.50;;;;;;;15.70;100.00;98814.84;5084750;28;20676;-69
2023/10/20 02:31:12;;;;;;;3.67;0.85;;;;;;;15.74;100.00;98811.59;5084240;28;20044;-69
2023/10/20 02:33:39;;;;;;;5.20;1.00;;;;;;;15.71;100.00;98816.47;5078339;28;20070;-67
2023/10/20 02:36:04;;;;;;;3.53;0.82;;;;;;;15.73;100.00;98809.97;5086106;28;20040;-67
2023/10/20 02:38:30;;;;;;;7.95;1.67;;;;;;;15.75;100.00;98801.88;5089338;28;20088;-67
2023/10/20 02:40:56;;;;;;;9.90;1.25;;;;;;;15.78;100.00;98814.56;5088170;28;20115;-70
2023/10/20 02:43:22;;;;;;;5.88;0.98;;;;;;;15.78;100.00;98812.75;5075643;28;20106;-69
2023/10/20 02:45:53;;;;;;;7.10;1.00;;;;;;;15.73;100.00;98809.97;5084245;28;20440;-69
2023/10/20 02:48:23;;;;;;;3.05;0.77;;;;;;;15.71;100.00;98813.84;5091890;28;20091;-69
2023/10/20 02:50:49;;;;;;;8.52;1.05;;;;;;;15.72;100.00;98800.50;5084272;28;20386;-69
2023/10/20 02:53:15;;;;;;;4.70;0.90;;;;;;;15.72;100.00;98808.38;5090438;28;20036;-69
2023/10/20 02:55:41;;;;;;;13.20;1.20;;;;;;;15.66;100.00;98798.72;5091282;28;20039;-69
2023/10/20 02:58:11;;;;;;;2.97;1.35;;;;;;;15.63;100.00;98804.41;5087634;28;20024;-69
2023/10/20 03:00:41;;;;;;;6.88;1.10;;;;;;;15.62;100.00;98802.00;5088735;28;20055;-69
2023/10/20 03:03:08;;;;;;;3.70;0.77;;;;;;;15.63;100.00;98807.03;5078700;28;20057;-69
2023/10/20 03:05:33;;;;;;;6.32;1.23;;;;;;;15.71;100.00;98805.97;5087409;28;20031;-69
2023/10/20 03:07:59;;;;;;;2.42;0.70;;;;;;;15.77;100.00;98799.84;5088621;28;20500;-69
2023/10/20 03:10:25;;;;;;;1.58;0.82;;;;;;;15.81;100.00;98799.19;5079499;27;20072;-69
2023/10/20 03:12:51;;;;;;;12.30;1.13;;;;;;;15.92;100.00;98808.97;5083245;28;20063;-69
2023/10/20 03:15:16;;;;;;;3.25;1.05;;;;;;;15.99;100.00;98811.53;5087105;28;20056;-69
2023/10/20 03:17:42;;;;;;;5.28;1.45;;;;;;;15.95;100.00;98807.72;5089320;28;20559;-69
2023/10/20 03:20:08;;;;;;;8.25;1.17;;;;;;;15.92;100.00;98814.22;5091714;28;20108;-69
2023/10/20 03:22:35;;;;;;;3.70;1.00;;;;;;;15.99;100.00;98819.41;5075863;28;20060;-69
2023/10/20 03:25:04;;;;;;;4.25;1.48;;;;;;;15.93;100.00;98804.53;5081612;28;20122;-69
2023/10/20 03:27:30;;;;;;;9.00;0.88;;;;;;;15.94;100.00;98808.75;5087732;28;20416;-69
2023/10/20 03:29:56;;;;;;;5.20;1.00;;;;;;;15.90;100.00;98810.22;5088486;28;20028;-69
2023/10/20 03:32:21;;;;;;;7.97;0.90;;;;;;;15.90;100.00;98811.00;5083309;28;20720;-69
2023/10/20 03:34:46;;;;;;;6.40;1.25;;;;;;;15.93;100.00;98799.28;5085058;28;20512;-69
2023/10/20 03:37:13;;;;;;;8.75;0.73;;;;;;;15.96;100.00;98808.53;5085297;28;20146;-69
2023/10/20 03:39:39;;;;;;;4.88;0.90;;;;;;;15.99;100.00;98808.09;5085811;28;20042;-69
2023/10/20 03:42:07;;;;;;;2.10;0.70;;;;;;;16.03;100.00;98804.00;5093684;28;20352;-69
2023/10/20 03:44:33;;;;;;;3.40;0.70;;;;;;;15.99;100.00;98803.66;5075913;28;20031;-69
2023/10/20 03:46:59;;;;;;;6.55;0.77;;;;;;;15.97;100.00;98804.88;5087648;28;20399;-69
2023/10/20 03:49:25;;;;;;;4.00;0.70;;;;;;;15.95;100.00;98813.00;5086712;28;20510;-69
2023/10/20 03:51:51;;;;;;;7.00;0.82;;;;;;;15.93;100.00;98812.41;5085124;28;20040;-69
2023/10/20 03:54:17;;;;;;;4.95;0.90;;;;;;;15.88;100.00;98818.31;5084719;28;20086;-69
2023/10/20 03:56:43;;;;;;;4.97;1.27;;;;;;;15.91;100.00;98806.56;5082999;28;20036;-69
2023/10/20 03:59:09;;;;;;;15.02;0.93;;;;;;;15.90;100.00;98803.13;5087268;28;20040;-69
2023/10/20 04:01:35;;;;;;;7.03;1.20;;;;;;;15.88;100.00;98797.28;5064560;28;20060;-69
2023/10/20 04:04:01;;;;;;;9.77;0.88;;;;;;;15.87;100.00;98797.50;5094684;28;20122;-69
2023/10/20 04:06:26;;;;;;;2.42;0.77;;;;;;;15.88;100.00;98786.78;5078411;28;20034;-69
2023/10/20 04:08:51;;;;;;;5.53;1.08;;;;;;;15.95;100.00;98785.91;5093473;28;20036;-69
2023/10/20 04:11:17;;;;;;;5.68;0.90;;;;;;;15.91;100.00;98783.72;5085067;28;20088;-69
2023/10/20 04:13:44;;;;;;;4.00;0.80;;;;;;;15.88;100.00;98778.09;5089712;28;20090;-69
2023/10/20 04:16:12;;;;;;;4.05;0.93;;;;;;;15.89;100.00;98774.47;5087809;28;20038;-69
2023/10/20 04:18:41;;;;;;;4.40;0.60;;;;;;;15.88;100.00;98771.03;5080200;28;20459;-69
2023/10/20 04:21:08;;;;;;;7.75;0.88;;;;;;;15.97;100.00;98768.91;5086913;28;20078;-69
2023/10/20 04:23:33;;;;;;;14.10;1.10;;;;;;;16.00;100.00;98771.09;5075314;28;22374;-69
2023/10/20 04:25:58;;;;;;;3.67;1.25;;;;;;;16.00;100.00;98757.97;5077598;28;20027;-69
2023/10/20 04:28:43;;;;;;;2.53;0.90;;;;;;;15.97;100.00;98755.78;5051101;28;20063;-69
2023/10/20 04:52:59;;;;;;;3.78;0.57;;;;;;;15.97;100.00;98711.13;4998345;28;20058;-69
2023/10/20 04:57:53;;;;;;;2.80;0.75;;;;;;;15.85;100.00;98718.94;5021828;28;20041;-69
2023/10/20 05:05:26;;;;;;;2.92;0.80;;;;;;;15.79;100.00;98725.09;5029673;28;20045;-69
2023/10/20 05:07:53;;;;;;;2.80;1.05;;;;;;;15.81;100.00;98701.22;5018362;28;20038;-70
2023/10/20 05:10:20;;;;;;;3.15;0.98;;;;;;;15.96;100.00;98709.53;5027648;28;20095;-69
2023/10/20 05:12:46;;;;;;;5.00;1.23;;;;;;;16.09;100.00;98713.78;5026928;28;20095;-69
2023/10/20 05:15:13;;;;;;;3.60;1.00;;;;;;;16.02;100.00;98713.91;5022957;28;20033;-69
2023/10/20 05:17:39;;;;;;;6.95;3.30;;;;;;;15.97;100.00;98699.81;5026506;28;20037;-69
2023/10/20 05:20:05;;;;;;;6.18;2.58;;;;;;;15.93;100.00;98705.53;5024608;28;20049;-69
2023/10/20 05:22:32;;;;;;;5.53;1.65;;;;;;;15.92;100.00;98703.91;5019440;28;20044;-69
2023/10/20 05:24:57;;;;;;;6.97;1.90;;;;;;;15.90;100.00;98720.91;5019084;28;20128;-69
2023/10/20 05:27:24;;;;;;;3.70;1.05;;;;;;;15.87;100.00;98716.09;5050988;28;20453;-70
2023/10/20 05:29:50;;;;;;;5.00;0.82;;;;;;;15.83;100.00;98714.94;5082153;28;20097;-70
2023/10/20 05:32:17;;;;;;;2.85;1.20;;;;;;;15.84;100.00;98700.78;5085478;28;20058;-69
2023/10/20 05:34:42;;;;;;;2.45;0.77;;;;;;;15.86;100.00;98709.25;5083955;28;20117;-69
2023/10/20 05:37:08;;;;;;;3.30;0.68;;;;;;;15.84;100.00;98706.03;5088161;28;20048;-69
2023/10/20 05:39:34;;;;;;;2.30;0.90;;;;;;;15.81;100.00;98696.78;5075354;28;20088;-69
2023/10/20 05:42:01;;;;;;;3.17;1.13;;;;;;;15.83;100.00;98702.63;5080554;28;20028;-69
2023/10/20 05:44:31;;;;;;;2.83;1.20;;;;;;;15.91;100.00;98715.44;5078443;28;20024;-69
2023/10/20 05:46:56;;;;;;;4.85;1.15;;;;;;;15.90;100.00;98715.66;5086544;28;20032;-69
2023/10/20 05:49:22;;;;;;;3.72;1.38;;;;;;;15.90;100.00;98715.66;5090224;28;20031;-69
2023/10/20 05:51:49;;;;;;;2.65;0.80;;;;;;;15.93;100.00;98705.53;5085540;28;20040;-69
2023/10/20 05:54:15;;;;;;;7.05;1.05;;;;;;;15.90;100.00;98700.72;5090139;28;20040;-69
2023/10/20 05:56:40;;;;;;;2.33;0.73;;;;;;;15.93;100.00;98699.47;5075343;28;20043;-69
2023/10/20 05:59:05;;;;;;;4.50;1.17;;;;;;;15.90;100.00;98692.03;5078691;28;20052;-69
2023/10/20 06:01:31;;;;;;;2.65;0.90;;;;;;;15.91;100.00;98672.63;5071681;28;20036;-69
2023/10/20 06:03:57;;;;;;;5.07;1.20;;;;;;;15.99;100.00;98672.31;5087286;28;20024;-69
2023/10/20 06:06:22;;;;;;;4.05;1.00;;;;;;;15.95;100.00;98684.28;5081856;28;20039;-69
2023/10/20 06:08:49;;;;;;;3.58;0.90;;;;;;;15.97;100.00;98679.63;5062399;28;20039;-69
2023/10/20 06:11:15;;;;;;;5.50;0.95;;;;;;;15.98;100.00;98673.34;5073588;28;20059;-70
2023/10/20 06:13:41;;;;;;;9.13;0.98;;;;;;;16.06;100.00;98680.91;5086046;28;20032;-69
2023/10/20 06:16:11;;;;;;;1.05;0.65;;;;;;;16.14;100.00;98688.47;5085805;28;20034;-69
2023/10/20 06:18:41;;;;;;;2.85;1.10;;;;;;;16.19;100.00;98691.22;5063359;28;20375;-69
2023/10/20 06:21:12;;;;;;;7.15;0.98;;;;;;;16.19;100.00;98693.84;5071916;28;20051;-68
2023/10/20 06:23:37;;;;;;;3.22;0.70;;;;;;;16.22;100.00;98693.41;5070223;28;20032;-69
2023/10/20 06:26:03;;;;;;;4.05;0.52;;;;;;;16.24;100.00;98687.91;5075366;28;20381;-69
2023/10/20 06:28:28;;;;;;;2.05;0.70;;;;;;;16.28;100.00;98696.97;5082631;28;20217;-69
2023/10/20 06:30:57;;;;;;;5.15;0.77;;;;;;;16.36;100.00;98698.47;5074601;28;20028;-69
2023/10/20 06:33:24;;;;;;;6.05;0.70;;;;;;;16.41;100.00;98695.97;5075631;28;20391;-69
2023/10/20 06:35:53;;;;;;;2.00;0.85;;;;;;;16.46;100.00;98696.09;5076651;28;20032;-69
2023/10/20 06:41:07;;;;;;;1.95;0.80;;;;;;;16.52;100.00;98690.75;5086286;28;20391;-69
2023/10/20 06:43:32;;;;;;;3.00;0.65;;;;;;;16.47;100.00;98679.31;5087439;28;20040;-69
2023/10/20 06:46:00;;;;;;;3.08;1.00;;;;;;;16.50;100.00;98674.41;5075855;28;20399;-69
2023/10/20 06:48:26;;;;;;;2.65;0.90;;;;;;;16.52;100.00;98677.59;5082213;28;20055;-69
2023/10/20 06:50:52;;;;;;;5.05;0.88;;;;;;;16.57;100.00;98680.34;5062729;28;20126;-69
2023/10/20 06:53:18;;;;;;;5.40;1.33;;;;;;;16.63;100.00;98677.84;5078385;28;20118;-69
2023/10/20 06:55:45;;;;;;;4.68;1.48;;;;;;;16.66;100.00;98677.41;5057543;28;20040;-69
2023/10/20 06:58:10;;;;;;;3.42;1.13;;;;;;;16.70;100.00;98686.44;5079377;28;20035;-69
2023/10/20 07:00:36;;;;;;;1.88;0.80;;;;;;;16.60;100.00;98682.50;5080926;28;20174;-69
2023/10/20 07:03:02;;;;;;;2.22;0.95;;;;;;;16.60;100.00;98684.34;5082515;28;20024;-69
2023/10/20 07:05:27;;;;;;;7.07;1.00;;;;;;;16.72;100.00;98697.53;5079952;28;20115;-69
2023/10/20 07:07:53;;;;;;;2.95;1.35;;;;;;;16.81;100.00;98697.00;5085559;28;20123;-69
2023/10/20 07:10:21;;;;;;;5.75;1.48;;;;;;;16.97;100.00;98694.72;5093991;28;20036;-70
2023/10/20 07:12:47;;;;;;;2.72;0.98;;;;;;;17.14;100.00;98683.25;5086080;28;20036;-69
2023/10/20 07:15:12;;;;;;;7.30;1.52;;;;;;;17.20;100.00;98673.66;5086337;28;20032;-69
2023/10/20 07:17:38;;;;;;;4.13;1.45;;;;;;;17.43;100.00;98678.09;5081788;28;20539;-69
2023/10/20 07:20:05;;;;;;;5.57;1.05;;;;;;;17.45;100.00;98671.56;5089681;28;20028;-69
2023/10/20 07:22:31;;;;;;;7.53;1.17;;;;;;;17.48;100.00;98662.41;5082420;28;20023;-69
2023/10/20 07:24:57;;;;;;;7.90;1.05;;;;;;;17.62;100.00;98650.53;5083622;28;20035;-69
2023/10/20 07:27:23;;;;;;;6.13;1.30;;;;;;;17.69;100.00;98645.97;5065666;28;20044;-69
2023/10/20 07:29:48;;;;;;;5.00;1.08;;;;;;;17.79;100.00;98634.84;5089090;28;20024;-68
2023/10/20 07:32:14;;;;;;;1.73;0.80;;;;;;;17.84;100.00;98637.56;5086822;28;20083;-70
2023/10/20 07:34:39;;;;;;;5.55;1.55;;;;;;;18.01;100.00;98643.66;5087329;28;20043;-69
2023/10/20 07:37:06;;;;;;;7.05;1.30;;;;;;;18.17;100.00;98642.09;5089095;28;20035;-69
2023/10/20 07:39:33;;;;;;;9.65;1.08;;;;;;;18.11;100.00;98638.56;5071431;28;20070;-69
2023/10/20 07:41:59;;;;;;;5.65;0.95;;;;;;;18.10;100.00;98636.19;5091268;28;20474;-69
2023/10/20 07:44:24;;;;;;;6.15;1.05;;;;;;;18.11;100.00;98649.13;5062139;28;20125;-69
2023/10/20 07:46:50;;;;;;;7.28;1.10;;;;;;;18.05;100.00;98652.69;5083489;28;20071;-69
2023/10/20 07:49:16;;;;;;;2.15;0.60;;;;;;;18.01;100.00;98653.41;5089671;28;20043;-69
2023/10/20 07:51:42;;;;;;;14.48;1.02;;;;;;;17.88;100.00;98639.50;5089789;28;20043;-69
2023/10/20 07:54:10;;;;;;;7.78;0.80;;;;;;;17.94;100.00;98648.31;5091144;28;20035;-69
2023/10/20 07:56:38;;;;;;;5.03;1.00;;;;;;;17.81;100.00;98624.88;5081429;28;20142;-69
2023/10/20 07:59:04;;;;;;;4.80;1.08;;;;;;;17.75;100.00;98618.72;5086176;28;20039;-69
2023/10/20 08:01:29;;;;;;;9.00;1.17;;;;;;;17.81;100.00;98644.09;5094307;28;20391;-69
2023/10/20 08:03:55;;;;;;;8.07;1.02;;;;;;;17.77;100.00;98663.25;5094325;28;20047;-69
2023/10/20 08:06:20;;;;;;;6.75;0.98;;;;;;;17.81;100.00;98665.19;5088267;28;20563;-69
2023/10/20 08:08:46;;;;;;;9.60;1.00;;;;;;;17.76;100.00;98667.72;5097041;28;20032;-69
2023/10/20 08:11:11;;;;;;;2.85;0.50;;;;;;;17.68;100.00;98678.63;5103938;28;20035;-69
2023/10/20 08:13:37;;;;;;;5.93;0.85;;;;;;;17.70;100.00;98676.56;5084830;28;20028;-69
2023/10/20 08:16:06;;;;;;;8.95;1.33;;;;;;;17.78;100.00;98675.38;5083564;28;20131;-69
2023/10/20 08:18:34;;;;;;;8.43;1.23;;;;;;;17.73;100.00;98670.81;5084000;28;20559;-69
2023/10/20 08:21:09;;;;;;;8.95;1.02;;;;;;;17.81;100.00;98674.91;5083517;28;20500;-69
2023/10/20 08:23:38;;;;;;;5.18;1.10;;;;;;;17.80;100.00;98686.50;5069537;28;20047;-69
2023/10/20 08:26:04;;;;;;;4.38;0.70;;;;;;;17.70;100.00;98699.44;5070376;28;20070;-69
2023/10/20 08:28:30;;;;;;;7.95;0.75;;;;;;;17.72;100.00;98713.19;5071910;28;20054;-69
2023/10/20 08:31:12;;;;;;;2.67;0.77;;;;;;;17.70;100.00;98713.41;5087411;28;20020;-69
2023/10/20 08:33:38;;;;;;;6.15;1.08;;;;;;;17.64;100.00;98705.63;5086753;28;20031;-69
2023/10/20 08:36:11;;;;;;;10.18;1.00;;;;;;;17.63;100.00;98688.22;5083811;28;20082;-69
2023/10/20 08:38:39;;;;;;;2.85;0.50;;;;;;;17.62;100.00;98682.16;5079755;28;20369;-69
2023/10/20 08:41:09;;;;;;;7.70;0.82;;;;;;;17.69;100.00;98692.59;5082040;28;20020;-69
2023/10/20 08:43:35;;;;;;;2.25;0.52;;;;;;;17.69;100.00;98684.69;5088889;28;20491;-69
2023/10/20 08:46:00;;;;;;;3.47;0.90;;;;;;;17.74;100.00;98685.59;5089126;28;20161;-69
2023/10/20 08:48:27;;;;;;;4.03;0.57;;;;;;;17.75;100.00;98660.84;5084307;28;20132;-69
2023/10/20 08:50:56;;;;;;;2.53;0.55;;;;;;;17.72;100.00;98656.03;5084585;28;20169;-69
2023/10/20 08:53:22;;;;;;;4.43;0.75;;;;;;;17.69;100.00;98647.81;5090500;28;20027;-69
2023/10/20 08:55:48;;;;;;;4.88;0.68;;;;;;;17.71;100.00;98640.47;5088612;28;20068;-69
2023/10/20 08:58:13;;;;;;;3.83;1.20;;;;;;;17.80;100.00;98650.41;5079880;28;20032;-69
2023/10/20 09:00:39;;;;;;;4.25;1.08;;;;;;;17.92;100.00;98650.38;5085858;28;20467;-72
2023/10/20 09:03:04;;;;;;;6.28;1.40;;;;;;;18.00;100.00;98643.91;5085605;28;20045;-74
2023/10/20 09:05:30;;;;;;;5.43;1.05;;;;;;;17.97;100.00;98652.28;5084243;28;20336;-68
2023/10/20 09:08:00;;;;;;;8.73;0.95;;;;;;;17.97;100.00;98637.25;5074842;28;20020;-68
2023/10/20 09:10:26;;;;;;;9.48;1.92;;;;;;;18.07;100.00;98629.53;5082260;28;20032;-68
2023/10/20 09:12:51;;;;;;;8.18;1.35;;;;;;;17.99;100.00;98635.19;5079577;28;20114;-68
2023/10/20 09:15:17;;;;;;;3.25;1.25;;;;;;;18.04;100.00;98645.81;5083184;28;20032;-68
2023/10/20 09:17:44;;;;;;;3.75;1.40;;;;;;;17.99;100.00;98644.94;5092041;28;20113;-68
2023/10/20 09:20:14;;;;;;;4.93;1.58;;;;;;;18.18;100.00;98641.06;5085178;28;20500;-68
2023/10/20 09:22:40;;;;;;;4.95;1.23;;;;;;;18.35;100.00;98643.72;5083827;28;20044;-68
2023/10/20 09:25:09;;;;;;;7.90;1.77;;;;;;;18.15;100.00;98639.69;5085475;28;20036;-67
2023/10/20 09:27:37;;;;;;;5.28;1.48;;;;;;;18.24;100.00;98643.56;5088106;28;20039;-68
2023/10/20 09:30:08;;;;;;;6.32;2.25;;;;;;;18.29;100.00;98644.69;5084826;28;20034;-67
2023/10/20 09:32:35;;;;;;;6.78;2.05;;;;;;;18.35;100.00;98638.44;5074655;28;20047;-67
2023/10/20 09:35:01;;;;;;;5.93;2.13;;;;;;;18.47;100.00;98644.44;5083752;28;20028;-68
2023/10/20 09:37:29;;;;;;;6.00;2.58;;;;;;;18.51;100.00;98624.44;5072942;28;20031;-68
2023/10/20 09:40:02;;;;;;;9.02;3.45;;;;;;;18.60;100.00;98630.97;5082446;28;20096;-68
2023/10/20 09:42:29;;;;;;;5.68;2.83;;;;;;;18.65;100.00;98630.25;5066889;28;20475;-68
2023/10/20 09:45:14;;;;;;;7.93;2.30;;;;;;;18.73;100.00;98620.09;5081326;28;20108;-68
2023/10/20 09:47:43;;;;;;;9.57;2.23;;;;;;;18.84;100.00;98616.56;5082480;28;20055;-68
2023/10/20 09:50:12;;;;;;;6.35;2.17;;;;;;;18.75;100.00;98623.28;5088647;28;20506;-68
2023/10/20 09:52:41;;;;;;;7.57;1.33;;;;;;;18.61;100.00;98616.72;5084562;28;20478;-68
2023/10/20 09:55:11;;;;;;;4.00;1.80;;;;;;;18.66;100.00;98619.44;5087403;28;20024;-68
2023/10/20 09:57:37;;;;;;;7.40;1.60;;;;;;;18.81;100.00;98637.34;5075038;28;20123;-67
2023/10/20 10:00:09;;;;;;;2.65;0.80;;;;;;;18.82;100.00;98631.03;5086157;28;20114;-68
2023/10/20 10:02:34;;;;;;;5.63;1.27;;;;;;;18.73;100.00;98625.38;5088406;28;20023;-68
2023/10/20 10:05:00;;;;;;;2.55;0.82;;;;;;;18.84;100.00;98632.38;5081381;28;20062;-68
2023/10/20 10:07:33;;;;;;;6.70;1.10;;;;;;;18.92;100.00;98627.72;5090173;28;20525;-67
2023/10/20 10:09:58;;;;;;;9.02;1.52;;;;;;;19.02;100.00;98620.75;5061544;28;20040;-68
2023/10/20 10:12:29;;;;;;;7.00;1.55;;;;;;;19.15;100.00;98627.50;5081646;28;20364;-67
2023/10/20 10:15:05;;;;;;;4.40;1.02;;;;;;;19.22;100.00;98630.78;5076556;28;20375;-68
2023/10/20 10:17:31;;;;;;;5.85;0.98;;;;;;;19.29;100.00;98641.97;5076790;28;20083;-68
2023/10/20 10:19:56;;;;;;;6.63;1.67;;;;;;;19.16;100.00;98643.09;5076509;28;20447;-68
2023/10/20 10:22:29;;;;;;;4.60;0.85;;;;;;;19.06;100.00;98655.38;5079461;28;20020;-68
2023/10/20 10:24:56;;;;;;;10.45;1.48;;;;;;;19.11;100.00;98660.72;5074944;28;20196;-67
2023/10/20 10:27:26;;;;;;;4.60;1.50;;;;;;;18.98;100.00;98658.41;5074562;28;20109;-68
2023/10/20 10:30:09;;;;;;;4.85;1.10;;;;;;;18.96;100.00;98645.47;5074153;28;20036;-68
2023/10/20 10:32:44;;;;;;;6.18;1.30;;;;;;;18.88;100.00;98633.50;5071298;28;20040;-67
2023/10/20 10:35:15;;;;;;;;;;;;;;;18.87;100.00;98629.28;5076200;28;20190;-67
2023/10/20 10:37:40;;;;;;;3.95;0.77;;;;;;;18.88;100.00;98616.88;5074463;28;20323;-68
2023/10/20 10:40:13;;;;;;;6.57;1.58;;;;;;;18.93;100.00;98613.47;5072134;28;20068;-68
2023/10/20 10:42:45;;;;;;;6.03;1.02;;;;;;;19.03;100.00;98595.94;5081330;28;20248;-68
2023/10/20 10:45:22;;;;;;;8.43;1.23;;;;;;;19.14;100.00;98589.75;5083843;28;20035;-68
2023/10/20 10:47:49;;;;;;;8.88;1.17;;;;;;;19.30;100.00;98584.66;5085597;28;20039;-68
2023/10/20 10:50:16;;;;;;;5.25;1.20;;;;;;;19.26;100.00;98589.66;5085103;28;20035;-68
2023/10/20 10:52:42;;;;;;;6.05;1.13;;;;;;;19.27;100.00;98580.69;5088201;28;20044;-68
2023/10/20 10:55:09;;;;;;;10.32;0.90;;;;;;;19.28;100.00;98570.91;5086998;28;20046;-67
2023/10/20 10:57:35;;;;;;;6.20;1.45;;;;;;;19.27;100.00;98570.13;5082965;28;20031;-68
2023/10/20 11:00:03;;;;;;;7.47;1.55;;;;;;;19.29;100.00;98570.66;5070942;28;20621;-68
2023/10/20 11:02:29;;;;;;;5.07;1.30;;;;;;;19.28;100.00;98568.28;5089763;28;20126;-68
2023/10/20 11:04:55;;;;;;;8.07;1.08;;;;;;;19.19;100.00;98552.06;5065504;28;20028;-68
2023/10/20 11:07:22;;;;;;;6.70;1.67;;;;;;;19.24;100.00;98541.56;5086163;28;20039;-68
2023/10/20 11:09:47;;;;;;;3.75;1.42;;;;;;;19.21;100.00;98526.22;5089081;28;20400;-68
2023/10/20 11:12:14;;;;;;;5.72;1.40;;;;;;;19.28;100.00;98533.97;5091776;28;20033;-68
2023/10/20 11:14:39;;;;;;;8.05;1.48;;;;;;;19.19;100.00;98525.66;5089191;28;20047;-68
2023/10/20 11:17:05;;;;;;;6.70;2.03;;;;;;;19.14;100.00;98526.41;5091991;28;20032;-68
2023/10/20 11:19:31;;;;;;;11.30;2.80;;;;;;;19.08;100.00;98522.13;5091174;28;20075;-68
2023/10/20 11:21:56;;;;;;;12.30;3.10;;;;;;;19.11;100.00;98520.81;5091684;28;20054;-68
2023/10/20 11:24:29;;;;;;;14.75;2.92;;;;;;;19.13;100.00;98516.91;5086363;28;20119;-68
2023/10/20 11:27:00;;;;;;;10.45;1.85;;;;;;;19.12;100.00;98515.28;5087904;28;20111;-68
2023/10/20 11:29:30;;;;;;;9.05;2.55;;;;;;;19.17;100.00;98498.72;5091384;28;20024;-68
2023/10/20 11:32:09;;;;;;;10.55;2.30;;;;;;;19.23;100.00;98508.28;5082989;28;20032;-68
2023/10/20 11:34:35;;;;;;;7.55;2.47;;;;;;;19.29;100.00;98515.22;5084343;28;20043;-71
2023/10/20 11:37:02;;;;;;;6.90;1.58;;;;;;;19.28;100.00;98507.56;5084351;28;20056;-71
2023/10/20 11:39:29;;;;;;;5.90;1.63;;;;;;;19.15;100.00;98508.72;5081915;28;20032;-68
2023/10/20 11:41:55;;;;;;;7.47;2.13;;;;;;;19.07;100.00;98502.03;5082155;28;20460;-68
2023/10/20 11:44:25;;;;;;;11.45;2.47;;;;;;;19.10;100.00;98492.84;5084795;28;20042;-68
2023/10/20 11:46:52;;;;;;;12.73;2.33;;;;;;;19.15;100.00;98500.81;5085163;28;20028;-68
2023/10/20 11:49:18;;;;;;;8.27;2.25;;;;;;;19.22;100.00;98501.41;5089729;28;20036;-68
2023/10/20 11:51:44;;;;;;;9.57;2.28;;;;;;;19.29;100.00;98502.03;5078825;28;20025;-68
2023/10/20 11:54:10;;;;;;;8.50;2.10;;;;;;;19.32;100.00;98500.75;5085805;28;20481;-69